»·PEaware :: N22AB KSMO-KONT

N22AB :: KSMO-KONT

FLIGHT INFORMATION

Flight Status: Arrived
Operator: Privately registered:
United States
More flights under this callsign
Pilot: Andrew B. (6114)
Aircraft: CIRRUS SR-22
(SR22)
More flights by this aircraft type
Origin: KSMO Santa Monica Mun
United States
Destination: KONT Ontario Intl
United States
More flights between these airports :: More routes between these airports
Route: +SMO SMO125 V64 SLI V8 PDZ
File this flight plan on PilotEdge
Remarks: SMOP9
Altitude:
(Current/Filed)
5,000ft
Speed:
(Current/Filed)
162kts
Departed: 20-Nov-20 08:55 PM
Arrived: 20-Nov-20 10:03 PM
Distance/Time
Traveled:
43nm/1:08
Distance/Time
To Go:
Arrived

Flight Plot

Page will automatically refresh every two minutes.

Flight plan parsing failed; only flown route is shown


Map Options




Map Legend


Flown Route
Filed Route
Departure Airport
Arrival Airport
Navaid (VOR, NDB)
Fix

Horizontal Profiles

Position Reports

Time Latitude Longitude Heading Altitude Ground
Speed
20-Nov-20 20:45 34.020078 -118.447708 0 162ft 0kts
20-Nov-20 20:46 34.020079 -118.447708 133 162ft 0kts
20-Nov-20 20:47 34.020078 -118.447708 133 162ft 0kts
20-Nov-20 20:48 34.020078 -118.447708 133 162ft 0kts
20-Nov-20 20:49 34.020078 -118.447708 133 162ft 0kts
20-Nov-20 20:50 34.020078 -118.447708 133 162ft 0kts
20-Nov-20 20:51 34.020078 -118.447708 133 162ft 0kts
20-Nov-20 20:52 34.019424 -118.448188 220 160ft 0kts
20-Nov-20 20:53 34.019543 -118.447742 140 161ft 0kts
20-Nov-20 20:54 34.018713 -118.447829 223 158ft 21kts
20-Nov-20 20:55 33.999782 -118.468165 230 1146ft 106kts
20-Nov-20 20:56 33.991723 -118.504244 248 2447ft 111kts
20-Nov-20 20:57 33.987308 -118.540462 261 3924ft 102kts
20-Nov-20 20:58 33.993398 -118.569389 338 4970ft 143kts
20-Nov-20 20:59 34.009884 -118.527779 104 5011ft 182kts
20-Nov-20 20:59 34.007987 -118.476007 84 4990ft 188kts
20-Nov-20 21:01 33.995171 -118.408564 156 4882ft 179kts
20-Nov-20 21:02 33.968033 -118.359447 135 4883ft 182kts
20-Nov-20 21:02 33.939167 -118.322141 135 4887ft 183kts
20-Nov-20 21:04 33.896767 -118.273800 171 4863ft 173kts
20-Nov-20 21:04 33.857900 -118.263263 167 4883ft 175kts
20-Nov-20 21:06 33.810263 -118.225666 121 4891ft 184kts
20-Nov-20 21:06 33.791318 -118.178822 116 4889ft 186kts
20-Nov-20 21:08 33.781446 -118.107355 87 4884ft 189kts
20-Nov-20 21:08 33.783916 -118.054922 75 4883ft 188kts
20-Nov-20 21:09 33.799032 -117.994573 71 4888ft 188kts
20-Nov-20 21:10 33.814580 -117.934552 71 4877ft 187kts
20-Nov-20 21:11 33.830021 -117.874827 71 4878ft 187kts
20-Nov-20 21:12 33.845395 -117.815291 70 5000ft 185kts
20-Nov-20 21:13 33.860371 -117.755261 72 5008ft 188kts
20-Nov-20 21:14 33.875591 -117.696488 71 5003ft 167kts
20-Nov-20 21:15 33.888043 -117.648570 70 4997ft 151kts
20-Nov-20 21:16 33.899360 -117.598230 82 5003ft 158kts
20-Nov-20 21:17 33.904241 -117.545881 82 5004ft 158kts
20-Nov-20 21:18 33.909356 -117.491485 84 4994ft 170kts
20-Nov-20 21:19 33.914541 -117.434061 82 5009ft 173kts
20-Nov-20 21:20 33.919887 -117.375891 81 4994ft 175kts
20-Nov-20 21:21 33.950277 -117.342784 0 4988ft 162kts
20-Nov-20 21:22 33.987318 -117.341914 348 4986ft 111kts
20-Nov-20 21:23 34.016727 -117.342192 351 5014ft 127kts
20-Nov-20 21:24 34.049065 -117.350186 297 4731ft 120kts
20-Nov-20 21:25 34.054539 -117.390946 269 4067ft 113kts
20-Nov-20 21:26 34.054510 -117.426629 267 3498ft 110kts
20-Nov-20 21:27 34.054707 -117.464240 267 2859ft 110kts
20-Nov-20 21:28 34.054763 -117.496210 269 2371ft 98kts
20-Nov-20 21:29 34.054823 -117.527095 271 1848ft 85kts
20-Nov-20 21:30 34.054888 -117.553883 270 1452ft 81kts
20-Nov-20 21:31 34.054829 -117.578135 273 1042ft 65kts
20-Nov-20 21:32 34.054801 -117.603818 271 1430ft 96kts
20-Nov-20 21:33 34.053879 -117.631240 267 3134ft 93kts
20-Nov-20 21:34 34.053823 -117.666026 266 4030ft 139kts
20-Nov-20 21:35 34.051349 -117.711851 268 3998ft 122kts
20-Nov-20 21:36 34.037629 -117.738668 169 4033ft 123kts
20-Nov-20 21:37 34.003114 -117.719386 158 4016ft 151kts
20-Nov-20 21:38 33.967041 -117.687979 100 4024ft 181kts
20-Nov-20 21:39 33.951516 -117.629573 113 4008ft 183kts
20-Nov-20 21:40 33.932682 -117.572759 111 3998ft 184kts
20-Nov-20 21:41 33.918694 -117.513434 91 4011ft 185kts
20-Nov-20 21:42 33.917822 -117.460973 91 3991ft 135kts
20-Nov-20 21:43 33.933866 -117.440276 299 4043ft 109kts
20-Nov-20 21:44 33.929934 -117.477289 253 4006ft 111kts
20-Nov-20 21:45 33.922194 -117.512723 250 4004ft 108kts
20-Nov-20 21:46 33.927948 -117.542719 345 4004ft 121kts
20-Nov-20 21:47 33.941485 -117.509203 98 3994ft 135kts
20-Nov-20 21:48 33.936738 -117.463039 99 3987ft 145kts
20-Nov-20 21:49 33.931607 -117.417440 94 4979ft 142kts
20-Nov-20 21:50 33.925850 -117.365249 90 5009ft 162kts
20-Nov-20 21:51 33.957869 -117.342403 356 5000ft 147kts
20-Nov-20 21:52 33.998310 -117.341937 355 4996ft 145kts
20-Nov-20 21:53 34.037142 -117.341701 352 5007ft 131kts
20-Nov-20 21:54 34.053705 -117.372733 273 4407ft 117kts
20-Nov-20 21:55 34.054505 -117.409467 268 3814ft 115kts
20-Nov-20 21:56 34.054743 -117.446455 269 3179ft 94kts
20-Nov-20 21:57 34.054600 -117.476855 266 2699ft 93kts
20-Nov-20 21:58 34.054895 -117.508206 268 2156ft 86kts
20-Nov-20 21:59 34.054946 -117.535853 270 1707ft 75kts
20-Nov-20 22:00 34.054793 -117.562442 268 1294ft 79kts
20-Nov-20 22:01 34.054930 -117.586709 274 923ft 58kts
20-Nov-20 22:02 34.053895 -117.594854 247 915ft 0kts

Navigation Log

Ident Type
Flight plan parsing failed, navigation log unavailable